Port Hope, Canada
Current Conditions -  °F | °C
As of 11:00 AM on Tuesday 21 Oct 2014 (Local Time) from CYPQ Reporting Station
Light Rain Light Rain  
Wind Chill: 38°   Ceiling: 1100
Heat Index: 45°   Visibility: 8mi
Dew Point: 45°   Wind: 13mph
Humidity: 100%   Direction: 30°NNE
Pressure: 29.89"   Gusts: 18mph
Location:  43.95°N, 78.3°W
Report Text: CYPQ 211500Z AUTO 03011G16KT 8SM -RA OVC011 07/07 A2989 RMK PCPN 3.2MM PAST HR SLP125
Loading
Personal Weather Stations






























Interactive Weather Map
Tropical Storm Tracking
New forecast layout! Learn more

10-Day Weather Forecast

Advertisements
Track Severe Weather on mobile